createdAt,value
2018-10-16T00:02:27.859Z,61.20
2018-10-16T00:04:59.329Z,62.37
2018-10-16T00:07:29.401Z,62.77
2018-10-16T00:10:00.057Z,58.93
2018-10-16T00:12:30.237Z,59.27
2018-10-16T00:15:01.242Z,58.83
2018-10-16T00:17:31.469Z,63.63
2018-10-16T00:20:01.380Z,62.70
2018-10-16T00:22:31.301Z,62.50
2018-10-16T00:25:12.722Z,61.63
2018-10-16T00:27:42.866Z,63.17
2018-10-16T00:30:12.988Z,62.57
2018-10-16T00:32:43.095Z,61.53
2018-10-16T00:35:13.335Z,60.40
2018-10-16T00:37:43.660Z,62.20
2018-10-16T00:40:13.826Z,61.77
2018-10-16T00:42:43.923Z,61.13
2018-10-16T00:45:14.216Z,65.20
2018-10-16T00:47:45.570Z,61.67
2018-10-16T00:50:16.132Z,61.87
2018-10-16T00:52:46.398Z,63.43
2018-10-16T00:55:16.983Z,62.43
2018-10-16T00:57:46.995Z,64.70
2018-10-16T01:00:17.103Z,66.33
2018-10-16T01:02:47.297Z,61.97
2018-10-16T01:05:17.855Z,65.03
2018-10-16T01:07:47.896Z,66.27
2018-10-16T01:10:18.608Z,66.77
2018-10-16T01:12:48.655Z,67.10
2018-10-16T01:15:18.959Z,66.47
2018-10-16T01:17:49.144Z,64.43
2018-10-16T01:20:19.618Z,64.93
2018-10-16T01:22:50.082Z,65.47
2018-10-16T01:25:20.488Z,68.60
2018-10-16T01:27:51.451Z,61.90
2018-10-16T01:30:23.311Z,67.27
2018-10-16T01:32:53.289Z,66.77
2018-10-16T01:35:23.603Z,68.70
2018-10-16T01:37:54.408Z,67.50
2018-10-16T01:40:25.454Z,67.70
2018-10-16T01:42:55.921Z,65.43
2018-10-16T01:45:26.311Z,69.97
2018-10-16T01:47:56.366Z,65.13
2018-10-16T01:50:27.064Z,68.03
2018-10-16T01:52:57.115Z,67.27
2018-10-16T01:55:27.165Z,69.73
2018-10-16T01:57:57.359Z,65.73
2018-10-16T02:00:28.486Z,69.67
2018-10-16T02:02:59.071Z,67.80
2018-10-16T02:05:29.201Z,69.30
2018-10-16T02:07:59.373Z,71.10
2018-10-16T02:10:29.577Z,68.97
2018-10-16T02:12:59.509Z,67.20
2018-10-16T02:15:29.436Z,66.77
2018-10-16T02:17:59.323Z,68.53
2018-10-16T02:20:29.292Z,66.67
2018-10-16T02:22:59.654Z,67.87
2018-10-16T02:25:29.864Z,65.67
2018-10-16T02:27:59.952Z,70.33
2018-10-16T02:30:29.851Z,66.97
2018-10-16T02:33:01.417Z,67.43
2018-10-16T02:35:31.527Z,68.53
2018-10-16T02:38:01.559Z,68.83
2018-10-16T02:40:32.038Z,69.07
2018-10-16T02:43:02.342Z,68.20
2018-10-16T02:45:32.495Z,64.93
2018-10-16T02:48:02.537Z,71.77
2018-10-16T02:50:32.745Z,67.67
2018-10-16T02:53:02.871Z,69.03
2018-10-16T02:55:33.248Z,66.10
2018-10-16T02:58:03.878Z,67.93
2018-10-16T03:00:33.956Z,69.33
2018-10-16T03:03:05.374Z,64.87
2018-10-16T03:05:35.513Z,65.70
2018-10-16T03:08:06.984Z,65.30
2018-10-16T03:10:37.592Z,67.77
2018-10-16T03:13:08.376Z,70.30
2018-10-16T03:15:38.785Z,68.43
2018-10-16T03:18:08.824Z,64.40
2018-10-16T03:20:39.196Z,68.07
2018-10-16T03:23:09.935Z,66.30
2018-10-16T03:25:40.114Z,68.27
2018-10-16T03:28:16.681Z,63.93
2018-10-16T03:30:46.848Z,63.90
2018-10-16T03:33:16.832Z,66.70
2018-10-16T03:35:46.883Z,65.63
2018-10-16T03:38:16.943Z,64.23
2018-10-16T03:40:46.909Z,64.03
2018-10-16T03:43:18.016Z,64.40
2018-10-16T03:45:48.133Z,65.13
2018-10-16T03:48:18.182Z,67.23
2018-10-16T03:50:48.407Z,61.83
2018-10-16T03:53:18.458Z,63.60
2018-10-16T03:55:48.694Z,64.53
2018-10-16T03:58:18.941Z,63.93
2018-10-16T04:00:48.899Z,63.67
2018-10-16T04:03:19.568Z,65.13
2018-10-16T04:05:50.744Z,65.73
2018-10-16T04:08:20.903Z,64.33
2018-10-16T04:10:51.050Z,65.43
2018-10-16T04:13:20.929Z,67.87
2018-10-16T04:15:50.983Z,65.57
2018-10-16T04:18:21.616Z,65.40
2018-10-16T04:20:52.109Z,65.30
2018-10-16T04:23:22.220Z,65.37
2018-10-16T04:25:52.542Z,64.50
2018-10-16T04:28:23.256Z,65.37
2018-10-16T04:30:53.473Z,64.90
2018-10-16T04:33:23.719Z,64.67
2018-10-16T04:35:54.340Z,64.20
2018-10-16T04:38:24.544Z,64.17
2018-10-16T04:40:54.849Z,65.33
2018-10-16T04:43:24.938Z,71.30
2018-10-16T04:45:55.120Z,66.87
2018-10-16T04:48:26.129Z,69.87
2018-10-16T04:50:56.473Z,67.37
2018-10-16T04:53:26.905Z,69.83
2018-10-16T04:55:57.850Z,70.47
2018-10-16T04:58:28.260Z,68.00
2018-10-16T05:00:58.389Z,68.00
2018-10-16T05:03:29.301Z,68.10
2018-10-16T05:05:59.345Z,69.60
2018-10-16T05:08:29.477Z,69.27
2018-10-16T05:10:59.732Z,67.17
2018-10-16T05:13:29.755Z,70.07
2018-10-16T05:15:59.950Z,66.00
2018-10-16T05:18:40.553Z,67.57
2018-10-16T05:21:10.557Z,68.07
2018-10-16T05:23:40.841Z,69.87
2018-10-16T05:26:11.220Z,68.60
2018-10-16T05:28:41.311Z,64.83
2018-10-16T05:31:11.823Z,66.00
2018-10-16T05:33:41.768Z,66.43
2018-10-16T05:36:11.851Z,67.20
2018-10-16T05:38:41.960Z,65.80
2018-10-16T05:41:12.079Z,66.50
2018-10-16T05:43:42.313Z,67.87
2018-10-16T05:46:12.939Z,62.27
2018-10-16T05:48:43.802Z,64.40
2018-10-16T05:51:14.097Z,67.13
2018-10-16T05:53:48.099Z,66.50
2018-10-16T05:56:19.024Z,63.13
2018-10-16T05:58:49.724Z,64.83
2018-10-16T06:01:19.948Z,65.33
2018-10-16T06:03:50.226Z,63.70
2018-10-16T06:06:20.841Z,63.87
2018-10-16T06:08:51.046Z,62.67
2018-10-16T06:11:21.225Z,64.90
2018-10-16T06:13:51.664Z,65.10
2018-10-16T06:16:21.707Z,65.73
2018-10-16T06:18:59.499Z,65.63
2018-10-16T06:21:30.126Z,65.37
2018-10-16T06:24:00.245Z,63.63
2018-10-16T06:26:30.478Z,64.63
2018-10-16T06:29:01.980Z,63.80
2018-10-16T06:31:32.583Z,63.97
2018-10-16T06:34:02.674Z,62.07
2018-10-16T06:36:33.616Z,63.33
2018-10-16T06:39:04.421Z,64.50
2018-10-16T06:41:34.534Z,62.73
2018-10-16T06:44:04.989Z,63.20
2018-10-16T06:46:35.305Z,63.83
2018-10-16T06:49:05.650Z,63.60
2018-10-16T06:51:36.166Z,66.33
2018-10-16T06:54:06.701Z,65.47
2018-10-16T06:56:37.753Z,67.50
2018-10-16T06:59:08.135Z,66.13
2018-10-16T07:01:38.161Z,63.20
2018-10-16T07:04:08.619Z,66.37
2018-10-16T07:06:39.193Z,65.13
2018-10-16T07:09:10.064Z,63.43
2018-10-16T07:11:40.569Z,64.03
2018-10-16T07:14:11.935Z,64.40
2018-10-16T07:16:42.508Z,65.13
2018-10-16T07:19:13.205Z,63.77
2018-10-16T07:21:43.687Z,65.87
2018-10-16T07:24:13.789Z,68.07
2018-10-16T07:26:43.791Z,64.03
2018-10-16T07:29:14.921Z,62.43
2018-10-16T07:31:45.147Z,63.63
2018-10-16T07:34:15.633Z,63.70
2018-10-16T07:36:46.216Z,66.73
2018-10-16T07:39:17.295Z,66.90
2018-10-16T07:41:47.549Z,67.77
2018-10-16T07:44:17.779Z,69.23
2018-10-16T07:46:47.991Z,64.03
2018-10-16T07:49:18.482Z,66.77
2018-10-16T07:51:48.676Z,68.83
2018-10-16T07:54:19.168Z,65.30
2018-10-16T07:56:49.545Z,65.33
2018-10-16T07:59:20.192Z,65.33
2018-10-16T08:01:50.305Z,66.60
2018-10-16T08:04:21.351Z,67.70
2018-10-16T08:06:52.391Z,70.07
2018-10-16T08:09:23.461Z,66.97
2018-10-16T08:11:53.978Z,69.03
2018-10-16T08:14:24.188Z,67.87
2018-10-16T08:16:54.363Z,62.43
2018-10-16T08:19:24.709Z,64.77
2018-10-16T08:21:54.824Z,65.70
2018-10-16T08:24:25.445Z,64.63
2018-10-16T08:26:55.702Z,64.67
2018-10-16T08:29:25.887Z,65.53
2018-10-16T08:31:56.106Z,63.60
2018-10-16T08:34:26.393Z,64.67
2018-10-16T08:36:56.511Z,63.60
2018-10-16T08:39:35.978Z,65.43
2018-10-16T08:44:31.216Z,66.13
2018-10-16T08:47:17.798Z,66.10
2018-10-16T08:50:04.268Z,64.80
2018-10-16T08:52:34.346Z,69.20
2018-10-16T08:55:04.706Z,67.53
2018-10-16T08:57:35.036Z,67.43
2018-10-16T09:00:05.310Z,67.47
2018-10-16T09:02:36.053Z,66.20
2018-10-16T09:05:07.132Z,71.23
2018-10-16T09:07:37.258Z,69.70
2018-10-16T09:10:07.529Z,71.13
2018-10-16T09:12:38.068Z,72.67
2018-10-16T09:15:08.982Z,67.07
2018-10-16T09:17:39.020Z,70.40
2018-10-16T09:20:09.740Z,68.50
2018-10-16T09:22:40.067Z,69.37
2018-10-16T09:25:11.091Z,70.50
2018-10-16T09:27:41.562Z,72.00
2018-10-16T09:30:13.361Z,71.53
2018-10-16T09:32:43.560Z,69.63
2018-10-16T09:35:14.007Z,71.77
2018-10-16T09:37:44.666Z,73.07
2018-10-16T09:40:14.707Z,69.67
2018-10-16T09:42:45.988Z,67.40
2018-10-16T09:45:17.061Z,68.00
2018-10-16T09:47:47.266Z,68.77
2018-10-16T09:50:17.259Z,68.67
2018-10-16T09:52:48.407Z,68.33
2018-10-16T09:55:18.886Z,72.90
2018-10-16T09:57:49.114Z,73.67
2018-10-16T10:00:24.569Z,68.03
2018-10-16T10:02:54.745Z,67.53
2018-10-16T10:05:25.302Z,70.47
2018-10-16T10:07:57.109Z,66.50
2018-10-16T10:10:27.381Z,66.80
2018-10-16T10:12:57.604Z,70.80
2018-10-16T10:15:27.752Z,71.03
2018-10-16T10:17:58.898Z,72.33
2018-10-16T10:20:29.111Z,72.37
2018-10-16T10:22:59.349Z,69.63
2018-10-16T10:25:29.530Z,72.47
2018-10-16T10:28:00.052Z,71.40
2018-10-16T10:30:30.494Z,72.20
2018-10-16T10:33:00.977Z,73.10
2018-10-16T10:35:30.943Z,71.50
2018-10-16T10:38:01.215Z,69.50
2018-10-16T10:40:31.419Z,70.70
2018-10-16T10:43:02.029Z,71.77
2018-10-16T10:45:32.156Z,73.90
2018-10-16T10:48:02.505Z,71.17
2018-10-16T10:50:32.857Z,73.07
2018-10-16T10:53:03.245Z,68.20
2018-10-16T10:55:33.873Z,69.37
2018-10-16T10:58:05.389Z,71.13
2018-10-16T11:00:36.326Z,70.73
2018-10-16T11:03:06.889Z,74.47
2018-10-16T11:05:37.139Z,67.70
2018-10-16T11:08:07.506Z,68.60
2018-10-16T11:10:37.733Z,68.73
2018-10-16T11:13:08.476Z,70.03
2018-10-16T11:15:38.568Z,73.10
2018-10-16T11:18:09.150Z,70.53
2018-10-16T11:20:39.502Z,71.77
2018-10-16T11:23:09.727Z,71.67
2018-10-16T11:25:46.278Z,72.77
2018-10-16T11:28:16.820Z,68.93
2018-10-16T11:30:46.910Z,68.27
2018-10-16T11:33:17.384Z,68.90
2018-10-16T11:35:47.620Z,73.33
2018-10-16T11:38:17.717Z,72.00
2018-10-16T11:40:48.051Z,70.63
2018-10-16T11:43:18.570Z,67.73
2018-10-16T11:45:48.581Z,67.73
2018-10-16T11:48:18.879Z,72.97
2018-10-16T11:50:49.017Z,68.93
2018-10-16T11:53:19.023Z,68.37
2018-10-16T11:55:49.264Z,68.17
2018-10-16T11:58:19.525Z,67.53
2018-10-16T12:00:49.669Z,70.50
2018-10-16T12:03:19.939Z,70.60
2018-10-16T12:05:50.301Z,67.50
2018-10-16T12:08:20.398Z,68.37
2018-10-16T12:10:50.615Z,68.40
2018-10-16T12:13:20.825Z,71.07
2018-10-16T12:15:51.915Z,66.20
2018-10-16T12:18:27.383Z,69.33
2018-10-16T12:21:05.483Z,67.63
2018-10-16T12:23:36.745Z,67.30
2018-10-16T12:26:07.837Z,70.40
2018-10-16T12:28:38.468Z,66.20
2018-10-16T12:31:08.999Z,68.27
2018-10-16T12:33:39.278Z,67.30
2018-10-16T12:36:09.428Z,70.07
2018-10-16T12:38:39.779Z,68.97
2018-10-16T12:41:10.157Z,67.43
2018-10-16T12:43:40.486Z,65.43
2018-10-16T12:46:10.662Z,68.97
2018-10-16T12:48:40.793Z,67.23
2018-10-16T12:51:11.065Z,67.80
2018-10-16T12:53:41.158Z,66.53
2018-10-16T12:56:11.482Z,67.77
2018-10-16T12:58:42.564Z,66.67
2018-10-16T13:01:13.417Z,66.93
2018-10-16T13:03:43.828Z,67.63
2018-10-16T13:06:13.877Z,67.93
2018-10-16T13:08:44.121Z,67.97
2018-10-16T13:11:14.428Z,66.13
2018-10-16T13:13:44.740Z,65.73
2018-10-16T13:16:15.284Z,67.77
2018-10-16T13:18:45.316Z,69.97
2018-10-16T13:21:15.584Z,68.40
2018-10-16T13:23:46.248Z,68.30
2018-10-16T13:26:16.578Z,69.43
2018-10-16T13:28:46.824Z,68.27
2018-10-16T13:31:17.012Z,67.60
2018-10-16T13:33:47.449Z,70.63
2018-10-16T13:36:17.825Z,67.43
2018-10-16T13:38:48.964Z,69.80
2018-10-16T13:41:19.038Z,69.97
2018-10-16T13:43:49.408Z,71.67
2018-10-16T13:46:19.595Z,78.57
2018-10-16T13:48:49.830Z,77.27
2018-10-16T13:51:21.208Z,76.80
2018-10-16T13:53:51.815Z,79.17
2018-10-16T13:56:22.049Z,77.43
2018-10-16T13:58:52.241Z,78.13
2018-10-16T14:01:22.440Z,80.47
2018-10-16T14:03:52.624Z,80.23
2018-10-16T14:06:23.191Z,79.83
2018-10-16T14:08:53.409Z,78.13
2018-10-16T14:11:23.564Z,76.60
2018-10-16T14:13:54.117Z,78.80
2018-10-16T14:16:24.583Z,80.03
2018-10-16T14:18:54.664Z,77.00
2018-10-16T14:21:25.549Z,80.33
2018-10-16T14:23:55.672Z,78.77
2018-10-16T14:26:25.955Z,75.83
2018-10-16T14:28:56.980Z,77.30
2018-10-16T14:31:28.325Z,72.10
2018-10-16T14:33:58.758Z,74.77
2018-10-16T14:36:28.987Z,77.10
2018-10-16T14:38:59.193Z,78.07
2018-10-16T14:41:29.467Z,78.90
2018-10-16T14:44:01.271Z,80.73
2018-10-16T14:46:32.273Z,77.67
2018-10-16T14:49:03.973Z,83.50
2018-10-16T14:51:34.985Z,78.50
2018-10-16T14:54:06.683Z,82.07
2018-10-16T14:56:36.800Z,81.33
2018-10-16T14:59:08.018Z,78.73
2018-10-16T15:01:38.317Z,77.43
2018-10-16T15:04:08.521Z,78.57
2018-10-16T15:06:38.609Z,82.97
2018-10-16T15:09:10.776Z,76.40
2018-10-16T15:11:40.969Z,74.83
2018-10-16T15:14:11.213Z,80.47
2018-10-16T15:16:41.604Z,80.83
2018-10-16T15:19:11.832Z,77.53
2018-10-16T15:21:42.471Z,76.20
2018-10-16T15:24:12.727Z,79.87
2018-10-16T15:26:43.144Z,98.20
2018-10-16T15:29:13.965Z,78.93
2018-10-16T15:31:44.275Z,78.60
2018-10-16T15:34:14.836Z,77.70
2018-10-16T15:36:45.924Z,79.80
2018-10-16T15:39:16.163Z,75.03
2018-10-16T15:41:46.338Z,77.80
2018-10-16T15:44:16.629Z,85.03
2018-10-16T15:46:47.554Z,80.17
2018-10-16T15:49:17.854Z,80.00
2018-10-16T15:51:47.996Z,81.00
2018-10-16T15:54:17.998Z,79.67
2018-10-16T15:56:48.107Z,79.83
2018-10-16T15:59:24.712Z,82.70
2018-10-16T16:01:55.336Z,83.83
2018-10-16T16:04:26.057Z,81.63
2018-10-16T16:06:58.249Z,82.30
2018-10-16T16:09:28.288Z,78.80
2018-10-16T16:11:58.527Z,88.97
2018-10-16T16:14:28.957Z,81.57
2018-10-16T16:16:59.333Z,81.43
2018-10-16T16:19:29.955Z,84.47
2018-10-16T16:22:00.485Z,79.10
2018-10-16T16:24:30.691Z,82.33
2018-10-16T16:27:01.049Z,80.77
2018-10-16T16:29:31.268Z,78.83
2018-10-16T16:32:01.568Z,82.60
2018-10-16T16:34:32.501Z,81.53
2018-10-16T16:37:02.557Z,80.17
2018-10-16T16:39:33.355Z,78.50
2018-10-16T16:42:04.702Z,75.90
2018-10-16T16:44:40.764Z,77.87
2018-10-16T16:47:14.012Z,77.37
2018-10-16T16:49:46.274Z,77.87
2018-10-16T16:52:16.614Z,77.77
2018-10-16T16:54:46.832Z,76.20
2018-10-16T16:57:18.009Z,75.40
2018-10-16T16:59:48.340Z,71.73
2018-10-16T17:02:18.829Z,71.73
2018-10-16T17:04:49.744Z,72.50
2018-10-16T17:07:20.850Z,67.97
2018-10-16T17:09:52.124Z,69.87
2018-10-16T17:12:22.426Z,71.97
2018-10-16T17:14:52.641Z,75.73
2018-10-16T17:17:22.902Z,72.07
2018-10-16T17:19:53.428Z,72.17
2018-10-16T17:22:24.894Z,70.63
2018-10-16T17:24:55.216Z,71.40
2018-10-16T17:27:25.308Z,72.37
2018-10-16T17:29:56.603Z,69.97
2018-10-16T17:32:27.431Z,70.13
2018-10-16T17:34:58.050Z,68.87
2018-10-16T17:37:28.167Z,71.17
2018-10-16T17:39:58.456Z,68.97
2018-10-16T17:42:29.813Z,72.07
2018-10-16T17:45:00.439Z,72.47
2018-10-16T17:47:31.028Z,70.80
2018-10-16T17:50:01.146Z,66.77
2018-10-16T17:52:31.440Z,72.57
2018-10-16T17:55:01.707Z,68.50
2018-10-16T17:57:32.370Z,67.63
2018-10-16T18:00:03.342Z,69.27
2018-10-16T18:02:33.604Z,68.13
2018-10-16T18:05:04.036Z,71.37
2018-10-16T18:07:34.418Z,70.17
2018-10-16T18:10:05.266Z,69.73
2018-10-16T18:12:35.427Z,70.57
2018-10-16T18:15:08.193Z,70.23
2018-10-16T18:17:38.385Z,71.83
2018-10-16T18:20:12.222Z,68.37
2018-10-16T18:22:42.786Z,70.30
2018-10-16T18:25:13.014Z,71.97
2018-10-16T18:27:44.260Z,70.70
2018-10-16T18:30:14.780Z,70.03
2018-10-16T18:32:44.869Z,71.77
2018-10-16T18:35:15.540Z,66.53
2018-10-16T18:37:47.051Z,67.77
2018-10-16T18:40:17.245Z,113.43
2018-10-16T18:42:47.380Z,68.60
2018-10-16T18:45:18.138Z,67.80
2018-10-16T18:47:48.564Z,71.13
2018-10-16T18:50:18.889Z,68.67
2018-10-16T18:52:49.368Z,71.40
2018-10-16T18:55:19.559Z,67.77
2018-10-16T18:57:49.900Z,69.83
2018-10-16T19:00:20.748Z,66.43
2018-10-16T19:02:50.825Z,68.67
2018-10-16T19:05:21.203Z,68.00
2018-10-16T19:07:51.679Z,68.03
2018-10-16T19:10:21.842Z,69.97
2018-10-16T19:12:52.269Z,66.97
2018-10-16T19:15:23.418Z,68.30
2018-10-16T19:17:54.305Z,67.47
2018-10-16T19:20:24.893Z,74.53
2018-10-16T19:22:55.322Z,69.23
2018-10-16T19:25:25.487Z,68.90
2018-10-16T19:27:55.884Z,72.17
2018-10-16T19:30:26.055Z,70.67
2018-10-16T19:32:56.368Z,70.50
2018-10-16T19:35:26.594Z,69.80
2018-10-16T19:37:57.568Z,69.37
2018-10-16T19:40:28.107Z,69.37
2018-10-16T19:42:58.554Z,66.63
2018-10-16T19:45:29.302Z,67.23
2018-10-16T19:47:59.550Z,65.57
2018-10-16T19:50:30.136Z,67.10
2018-10-16T19:53:01.634Z,68.60
2018-10-16T19:55:31.848Z,68.50
2018-10-16T19:58:02.328Z,64.17
2018-10-16T20:00:33.431Z,70.53
2018-10-16T20:03:04.014Z,62.13
2018-10-16T20:05:34.895Z,65.17
2018-10-16T20:08:05.266Z,65.90
2018-10-16T20:10:35.636Z,63.43
2018-10-16T20:13:05.779Z,65.00
2018-10-16T20:15:36.064Z,65.30
2018-10-16T20:18:06.327Z,63.07
2018-10-16T20:20:37.162Z,61.73
2018-10-16T20:23:07.588Z,63.33
2018-10-16T20:25:38.659Z,62.60
2018-10-16T20:28:08.992Z,64.07
2018-10-16T20:30:39.577Z,63.37
2018-10-16T20:33:10.445Z,62.97
2018-10-16T20:35:41.024Z,61.50
2018-10-16T20:38:11.370Z,62.37
2018-10-16T20:40:41.855Z,65.90
2018-10-16T20:43:12.990Z,61.57
2018-10-16T20:45:43.093Z,61.57
2018-10-16T20:48:13.677Z,60.23
2018-10-16T20:50:43.967Z,65.33
2018-10-16T20:53:14.201Z,64.17
2018-10-16T20:55:44.278Z,62.80
2018-10-16T20:58:14.250Z,63.07
2018-10-16T21:00:45.430Z,61.77
2018-10-16T21:03:15.609Z,62.67
2018-10-16T21:05:46.119Z,65.30
2018-10-16T21:08:16.402Z,62.67
2018-10-16T21:10:46.561Z,62.07
2018-10-16T21:13:16.943Z,63.67
2018-10-16T21:15:47.037Z,64.50
2018-10-16T21:18:17.254Z,62.63
2018-10-16T21:20:47.446Z,63.50
2018-10-16T21:23:17.682Z,62.37
2018-10-16T21:25:48.213Z,61.40
2018-10-16T21:28:18.824Z,66.27
2018-10-16T21:30:49.259Z,61.27
2018-10-16T21:33:19.777Z,63.17
2018-10-16T21:35:50.172Z,63.23
2018-10-16T21:38:20.245Z,60.77
2018-10-16T21:40:50.714Z,61.03
2018-10-16T21:43:21.257Z,61.47
2018-10-16T21:45:51.265Z,60.90
2018-10-16T21:48:21.840Z,61.47
2018-10-16T21:50:52.636Z,64.77
2018-10-16T21:53:22.868Z,61.07
2018-10-16T21:55:54.039Z,63.93
2018-10-16T21:58:24.565Z,62.87
2018-10-16T22:00:59.910Z,63.30
2018-10-16T22:03:30.475Z,61.53
2018-10-16T22:06:00.786Z,62.87
2018-10-16T22:08:31.663Z,64.90
2018-10-16T22:11:02.158Z,62.60
2018-10-16T22:13:32.825Z,63.17
2018-10-16T22:16:02.794Z,62.43
2018-10-16T22:18:33.968Z,60.27
2018-10-16T22:21:04.310Z,60.47
2018-10-16T22:23:34.480Z,60.77
2018-10-16T22:26:04.693Z,62.57
2018-10-16T22:28:35.263Z,61.97
2018-10-16T22:31:06.317Z,60.70
2018-10-16T22:33:37.236Z,65.00
2018-10-16T22:36:08.457Z,58.33
2018-10-16T22:38:38.758Z,63.13
2018-10-16T22:41:09.095Z,60.17
2018-10-16T22:43:39.312Z,60.47
2018-10-16T22:46:09.407Z,64.00
2018-10-16T22:48:39.661Z,59.87
2018-10-16T22:51:09.900Z,60.70
2018-10-16T22:53:39.891Z,62.20
2018-10-16T22:56:10.425Z,61.50
2018-10-16T22:58:41.438Z,62.50
2018-10-16T23:01:11.892Z,60.17
2018-10-16T23:03:43.033Z,61.50
2018-10-16T23:06:13.675Z,61.17
2018-10-16T23:08:44.101Z,62.27
2018-10-16T23:11:14.273Z,60.93
2018-10-16T23:13:44.405Z,60.67
2018-10-16T23:16:21.279Z,61.20
2018-10-16T23:18:51.572Z,60.20
2018-10-16T23:21:21.585Z,61.63
2018-10-16T23:23:51.685Z,62.80
2018-10-16T23:26:21.739Z,60.93
2018-10-16T23:28:51.854Z,61.53
2018-10-16T23:31:22.222Z,59.27
2018-10-16T23:33:52.384Z,59.47
2018-10-16T23:36:22.783Z,60.83
2018-10-16T23:38:53.346Z,59.47
2018-10-16T23:41:23.645Z,60.00
2018-10-16T23:43:54.069Z,60.93
2018-10-16T23:46:24.407Z,60.57
2018-10-16T23:48:54.690Z,58.50
2018-10-16T23:51:25.928Z,60.87
2018-10-16T23:53:55.892Z,61.73
2018-10-16T23:56:26.405Z,59.90
2018-10-16T23:58:56.805Z,61.83
